SVPL1: Red River at Shreveport Site 2

                                SHEF ID:       SVPL1     Red River at Shreveport Site 2
STATION TYPE:

PRECIP STAGE RIV-FLOW VOLTAGE
in ft cfs volt
Ccp-Rev Ccp-Rev Ccp-Rev Ccp-Rev
(America/Chicago)
08/02 00:00 0.00 13.66 1504 12.83
08/02 01:00 0.00 13.67 1548 12.83
08/02 02:00 0.00 13.68 1592 12.80
08/02 03:00 0.00 13.69 1636 12.78
08/02 04:00 0.00 13.70 1680 12.77
08/02 05:00 0.00 13.71 1724 12.77
08/02 06:00 0.00 13.73 1812 12.77
08/02 07:00 0.00 13.73 1812 12.99
08/02 08:00 0.00 13.73 1812 13.38
08/02 09:00 0.00 13.73 1812 13.06
08/02 10:00 0.00 13.66 1504 13.06
08/02 11:00 0.00 13.64 1416 13.06
08/02 12:00 0.00 13.72 1768 13.09
08/02 13:00 0.00 13.73 1812 13.07
08/02 14:00 0.00 13.66 1504 13.06
08/02 15:00 0.00 13.70 1680 13.06
08/02 16:00 0.00 13.73 1812 13.04
08/02 17:00 0.00 13.76 1944 13.06
08/02 18:00 0.00 13.79 2076 13.07
08/02 19:00 0.00 13.80 2120 12.93
08/02 20:00 0.00 13.82 2208 12.89
08/02 21:00 0.00 13.84 2296 12.86
08/02 22:00 0.00 13.84 2296 12.86
08/02 23:00 0.00 13.84 2296 12.86
Data processed at Mon 03Aug2026 04:24 GMT

NOTICE: If you are parsing this page

Please convert to using our Data API. Starting early 2026 we will be migrating to: https://water.usace.army.mil with modern pages rendered in JavaScript. When this migration completes you will no longer be able to scrape this page! CWMSDataAPI (CDA)

Timeseries IDs (TSIDs)

TSIDs used from left to right in the data table
SHRE.Precip-Inc.Total.1Hour.1Hour.Ccp-Rev
SHRE.Stage.Inst.1Hour.0.Ccp-Rev
SHRE.Flow.Inst.1Hour.0.Ccp-Rev
SHRE.Volt-Battery.Inst.1Hour.0.Ccp-Rev

                            

All information presented herein is the property of the government of the United States of America and may be revised or deleted at any time without prior notice. Dissemination of this information without the expressed written consent of the Public Affairs Office, Tulsa District U.S. Army Corps of Engineers is strictly prohibited. These data are gathered electronically and, as presented, have NOT undergone any form of quality control. These data are NOT guaranteed to be valid or correct.